Accueil
METAR-TAF:

METAR-TAF

Aéroports :

Boscombe Down, Angleterre

latitude: 51-10N, longitude: 001-45W, altitude: 124 m

Observation

Le bulletin a été fait il y a 35 minutes, à 15:50 UTC
Vent 10 kt de sud/sud-ouest
Température 4°C
Humidité 81%
Pression 1019 hPa
Visibilité 10 km ou plus
Nuages épars à une hauteur de 2800 ft
Nuages fragmentés à une hauteur de 20000 ft

METAR: EGDM 211550Z 20010KT 9999 SCT028 BKN200 04/01 Q1019 BLU NOSIG

Heure: 16:25 (16:25 UTC)

Prévision

Le bulletin a été fait il y a 2 heures et 59 minutes, à 13:26 UTC
Prévision valable du 21 à 15 UTC au 21 à 19 UTC
Vent 8 kt de sud
Visibilité 10 km ou plus
Quelques nuages à une hauteur de 2800 ft

TAF: EGDM 211326Z 2115/2119 19008KT 9999 FEW028

Observations et prévisions météorologiques de plus de 4000 aéroports (messages METAR et TAF).

Les stations disponibles sont représentées par des disques jaunes et rouges sur la carte.

Passer la souris dessus pour voir le nom de la station.

Cliquer dessus pour voir les observations et prévisions météorologiques.

Pour changer de carte: cliquez sur les boutons verts avec une croix noire pour zoomer, sur le bouton vert avec un tiret pour effectuer un zoom arrière, ou sur les flèches vertes pour les cartes adjacentes.


METAR-TAF: